Carnival Pride — H3VU — position and weather

sailwx.info

Track history (hours):
 
Tides and Currents Weather Stations Pressure Air Temp Water Temp Dewpoint Dewpoint Depression Visibility Wind Speed Wind Dir Waves Ship Positions

Carnival Pride

Operator: Carnival Cruise Lines

Last reported at 2018-Feb-20 11:00 UTC. Time now 2018-Feb-22 10:45 UTC.
Position N 29°42' W 075°36'.

Type: Ship. MMSI: 354215000.

Wind from 100 at 30 knots

Barometer 1032.9 mb
Air temperature 22.0 ° C
Visibility: greater than 10.8 NM
Dewpoint 18.9 ° C
Water temperature 23.0 ° C

Date/timePositionNaut miles runAvg speedWind from/ knotsBaromVisibWave heightAir tempDewpointWater temp
2018-Feb-20 11:00N 29°42' W 075°36'42116.4 100 / 301032.910.8 22.018.923.0
2018-Feb-19 09:19N 36°43' W 075°42'411.1
2018-Feb-19 08:59N 36°46' W 075°44'5 9.9
2018-Feb-19 08:30N 36°49' W 075°48'510.1
2018-Feb-19 08:00N 36°52' W 075°53'710.1
2018-Feb-19 07:21N 36°57' W 075°59'411.9
2018-Feb-19 07:00N 37°00' W 076°02'1018.7
2018-Feb-19 06:29N 37°08' W 076°09'817.4
2018-Feb-19 06:00N 37°17' W 076°07'4117.4
2018-Feb-19 03:40N 37°57' W 076°10'4119.9
2018-Feb-19 01:38N 38°36' W 076°26'319.7
2018-Feb-19 01:30N 38°38' W 076°25'918.4
2018-Feb-19 01:00N 38°47' W 076°25'918.5
2018-Feb-19 00:30N 38°56' W 076°23'714.5
2018-Feb-19 00:00N 39°04' W 076°23'713.7
2018-Feb-18 23:30N 39°10' W 076°26'611.3
2018-Feb-18 23:00N 39°13' W 076°32'4 7.7
2018-Feb-18 22:30N 39°16' W 076°36'0 0.4
2018-Feb-18 21:59N 39°16' W 076°36'0 0.0
2018-Feb-18 21:29N 39°16' W 076°36'0 0.0
2018-Feb-18 20:59N 39°16' W 076°36'0 0.0
2018-Feb-18 20:29N 39°16' W 076°36'0 0.0
2018-Feb-18 19:59N 39°16' W 076°36'0 0.0
2018-Feb-18 19:29N 39°16' W 076°36'0 0.0
2018-Feb-18 18:59N 39°16' W 076°36'0 0.0
2018-Feb-18 18:29N 39°16' W 076°36'0 0.0
2018-Feb-18 17:59N 39°16' W 076°36'0 0.0
2018-Feb-18 17:29N 39°16' W 076°36'0 0.0
2018-Feb-18 16:59N 39°16' W 076°36'0 0.0
2018-Feb-18 16:29N 39°16' W 076°36'0 0.0
2018-Feb-18 15:59N 39°16' W 076°36'0 0.0
2018-Feb-18 15:29N 39°16' W 076°36'0 0.0
2018-Feb-18 14:59N 39°16' W 076°36'0 0.0
2018-Feb-18 14:29N 39°16' W 076°36'0 0.0
2018-Feb-18 13:59N 39°16' W 076°36'0 0.1
2018-Feb-18 13:30N 39°16' W 076°36'3 5.8
2018-Feb-18 13:00N 39°14' W 076°33'5 9.3
2018-Feb-18 12:30N 39°11' W 076°28'611.5
2018-Feb-18 12:00N 39°07' W 076°24'612.4
2018-Feb-18 11:30N 39°01' W 076°23'713.2
2018-Feb-18 11:00N 38°54' W 076°23'917.7
2018-Feb-18 10:30N 38°45' W 076°26'918.0
2018-Feb-18 10:00N 38°36' W 076°26'2817.1
2018-Feb-18 08:22N 38°10' W 076°14'919.3
2018-Feb-18 07:56N 38°01' W 076°13'3819.0
2018-Feb-18 05:57N 37°24' W 076°05'920.8
2018-Feb-18 05:29N 37°15' W 076°08'1018.7
2018-Feb-18 04:59N 37°06' W 076°07'816.6
2018-Feb-18 04:30N 36°59' W 076°01'611.0
2018-Feb-18 03:58N 36°55' W 075°55'510.6
2018-Feb-18 03:30N 36°52' W 075°51'30219.5
2018-Feb-17 12:00N 32°18' W 078°24'7519.1 070 / 121017.9 2.2 22.018.926.0
2018-Feb-17 08:03N 31°15' W 079°12'28322.6
2018-Feb-16 19:32N 26°32' W 078°56'  
2018-Feb-12 12:00N 36°12' W 075°18'4316.5 230 / 301022.9 0.3 15.013.2 7.0
2018-Feb-12 09:23N 36°49' W 075°46'4 9.6
2018-Feb-12 09:01N 36°51' W 075°50'5 9.3
2018-Feb-12 08:27N 36°54' W 075°55'4 9.4
2018-Feb-12 08:00N 36°57' W 075°59'612.4
2018-Feb-12 07:30N 37°02' W 076°03'1118.7
2018-Feb-12 06:55N 37°12' W 076°09'920.1
2018-Feb-12 06:29N 37°20' W 076°05'3619.3
2018-Feb-12 04:37N 37°56' W 076°09'220.7
2018-Feb-12 04:30N 37°58' W 076°11'1820.5
2018-Feb-12 03:37N 38°15' W 076°16'521.0
2018-Feb-12 03:23N 38°20' W 076°18'921.4
2018-Feb-12 02:57N 38°29' W 076°23'920.2
2018-Feb-12 02:30N 38°37' W 076°25'1121.1
2018-Feb-12 02:00N 38°48' W 076°25'1019.8
2018-Feb-12 01:30N 38°58' W 076°24'611.0
2018-Feb-12 01:01N 39°03' W 076°23'612.6
2018-Feb-12 00:31N 39°09' W 076°25'612.7
2018-Feb-12 00:01N 39°13' W 076°32'4 8.0
2018-Feb-11 23:31N 39°16' W 076°36'0 0.5
2018-Feb-11 22:58N 39°16' W 076°36'0 0.0
2018-Feb-11 22:28N 39°16' W 076°36'0 0.0
2018-Feb-11 21:58N 39°16' W 076°36'0 0.0
2018-Feb-11 21:28N 39°16' W 076°36'0 0.0
2018-Feb-11 20:58N 39°16' W 076°36'0 0.0
2018-Feb-11 20:28N 39°16' W 076°36'0 0.0
2018-Feb-11 19:58N 39°16' W 076°36'0 0.0
2018-Feb-11 19:22N 39°16' W 076°36'0 0.0
2018-Feb-11 18:58N 39°16' W 076°36'0 0.0
2018-Feb-11 18:28N 39°16' W 076°36'0 0.0
2018-Feb-11 17:55N 39°16' W 076°36'0 0.0
2018-Feb-11 17:28N 39°16' W 076°36'0 0.0
2018-Feb-11 16:58N 39°16' W 076°36'0 0.0
2018-Feb-11 16:28N 39°16' W 076°36'0 0.0
2018-Feb-11 15:58N 39°16' W 076°36'0 0.0
2018-Feb-11 15:25N 39°16' W 076°36'0 0.0
2018-Feb-11 14:55N 39°16' W 076°36'0 0.0
2018-Feb-11 14:28N 39°16' W 076°36'0 0.0
2018-Feb-11 14:00N 39°16' W 076°36'2 3.2
2018-Feb-11 13:30N 39°15' W 076°34'5 9.4
2018-Feb-11 13:00N 39°12' W 076°30'612.1
2018-Feb-11 12:30N 39°08' W 076°24'714.8
2018-Feb-11 12:00N 39°01' W 076°23'918.7
2018-Feb-11 11:30N 38°51' W 076°24'1220.9
2018-Feb-11 10:57N 38°40' W 076°25'3120.7
2018-Feb-11 09:27N 38°10' W 076°14'612.0
2018-Feb-11 08:59N 38°04' W 076°15'2 3.4
2018-Feb-11 08:26N 38°03' W 076°15'4 8.8
2018-Feb-11 07:59N 37°59' W 076°12'3818.4
2018-Feb-11 05:56N 37°22' W 076°05'919.6
2018-Feb-11 05:29N 37°14' W 076°08'917.2
2018-Feb-11 04:59N 37°05' W 076°06'918.0
2018-Feb-11 04:29N 36°58' W 075°60'5 9.7
2018-Feb-11 04:00N 36°55' W 075°55'510.5
2018-Feb-11 03:30N 36°52' W 075°50'510.6
2018-Feb-11 03:00N 36°49' W 075°45'  
Track history (hours):
 
Tides and Currents Weather Stations Pressure Air Temp Water Temp Dewpoint Dewpoint Depression Visibility Wind Speed Wind Dir Waves Ship Positions

Carnival Pride

Operator: Carnival Cruise Lines

Last reported at 2018-Feb-20 11:00 UTC. Time now 2018-Feb-22 10:45 UTC.
Position N 29°42' W 075°36'.

Type: Ship. MMSI: 354215000.

Wind from 100 at 30 knots

Barometer 1032.9 mb
Air temperature 22.0 ° C
Visibility: greater than 10.8 NM
Dewpoint 18.9 ° C
Water temperature 23.0 ° C

Date/timePositionNaut miles runAvg speedWind from/ knotsBaromVisibWave heightAir tempDewpointWater temp
2018-Feb-20 11:00N 29°42' W 075°36'42116.4 100 / 301032.910.8 22.018.923.0
2018-Feb-19 09:19N 36°43' W 075°42'411.1
2018-Feb-19 08:59N 36°46' W 075°44'5 9.9
2018-Feb-19 08:30N 36°49' W 075°48'510.1
2018-Feb-19 08:00N 36°52' W 075°53'710.1
2018-Feb-19 07:21N 36°57' W 075°59'411.9
2018-Feb-19 07:00N 37°00' W 076°02'1018.7
2018-Feb-19 06:29N 37°08' W 076°09'817.4
2018-Feb-19 06:00N 37°17' W 076°07'4117.4
2018-Feb-19 03:40N 37°57' W 076°10'4119.9
2018-Feb-19 01:38N 38°36' W 076°26'319.7
2018-Feb-19 01:30N 38°38' W 076°25'918.4
2018-Feb-19 01:00N 38°47' W 076°25'918.5
2018-Feb-19 00:30N 38°56' W 076°23'714.5
2018-Feb-19 00:00N 39°04' W 076°23'713.7
2018-Feb-18 23:30N 39°10' W 076°26'611.3
2018-Feb-18 23:00N 39°13' W 076°32'4 7.7
2018-Feb-18 22:30N 39°16' W 076°36'0 0.4
2018-Feb-18 21:59N 39°16' W 076°36'0 0.0
2018-Feb-18 21:29N 39°16' W 076°36'0 0.0
2018-Feb-18 20:59N 39°16' W 076°36'0 0.0
2018-Feb-18 20:29N 39°16' W 076°36'0 0.0
2018-Feb-18 19:59N 39°16' W 076°36'0 0.0
2018-Feb-18 19:29N 39°16' W 076°36'0 0.0
2018-Feb-18 18:59N 39°16' W 076°36'0 0.0
2018-Feb-18 18:29N 39°16' W 076°36'0 0.0
2018-Feb-18 17:59N 39°16' W 076°36'0 0.0
2018-Feb-18 17:29N 39°16' W 076°36'0 0.0
2018-Feb-18 16:59N 39°16' W 076°36'0 0.0
2018-Feb-18 16:29N 39°16' W 076°36'0 0.0
2018-Feb-18 15:59N 39°16' W 076°36'0 0.0
2018-Feb-18 15:29N 39°16' W 076°36'0 0.0
2018-Feb-18 14:59N 39°16' W 076°36'0 0.0
2018-Feb-18 14:29N 39°16' W 076°36'0 0.0
2018-Feb-18 13:59N 39°16' W 076°36'0 0.1
2018-Feb-18 13:30N 39°16' W 076°36'3 5.8
2018-Feb-18 13:00N 39°14' W 076°33'5 9.3
2018-Feb-18 12:30N 39°11' W 076°28'611.5
2018-Feb-18 12:00N 39°07' W 076°24'612.4
2018-Feb-18 11:30N 39°01' W 076°23'713.2
2018-Feb-18 11:00N 38°54' W 076°23'917.7
2018-Feb-18 10:30N 38°45' W 076°26'918.0
2018-Feb-18 10:00N 38°36' W 076°26'2817.1
2018-Feb-18 08:22N 38°10' W 076°14'919.3
2018-Feb-18 07:56N 38°01' W 076°13'3819.0
2018-Feb-18 05:57N 37°24' W 076°05'920.8
2018-Feb-18 05:29N 37°15' W 076°08'1018.7
2018-Feb-18 04:59N 37°06' W 076°07'816.6
2018-Feb-18 04:30N 36°59' W 076°01'611.0
2018-Feb-18 03:58N 36°55' W 075°55'510.6
2018-Feb-18 03:30N 36°52' W 075°51'30219.5
2018-Feb-17 12:00N 32°18' W 078°24'7519.1 070 / 121017.9 2.2 22.018.926.0
2018-Feb-17 08:03N 31°15' W 079°12'28322.6
2018-Feb-16 19:32N 26°32' W 078°56'  
2018-Feb-12 12:00N 36°12' W 075°18'4316.5 230 / 301022.9 0.3 15.013.2 7.0
2018-Feb-12 09:23N 36°49' W 075°46'4 9.6
2018-Feb-12 09:01N 36°51' W 075°50'5 9.3
2018-Feb-12 08:27N 36°54' W 075°55'4 9.4
2018-Feb-12 08:00N 36°57' W 075°59'612.4
2018-Feb-12 07:30N 37°02' W 076°03'1118.7
2018-Feb-12 06:55N 37°12' W 076°09'920.1
2018-Feb-12 06:29N 37°20' W 076°05'3619.3
2018-Feb-12 04:37N 37°56' W 076°09'220.7
2018-Feb-12 04:30N 37°58' W 076°11'1820.5
2018-Feb-12 03:37N 38°15' W 076°16'521.0
2018-Feb-12 03:23N 38°20' W 076°18'921.4
2018-Feb-12 02:57N 38°29' W 076°23'920.2
2018-Feb-12 02:30N 38°37' W 076°25'1121.1
2018-Feb-12 02:00N 38°48' W 076°25'1019.8
2018-Feb-12 01:30N 38°58' W 076°24'611.0
2018-Feb-12 01:01N 39°03' W 076°23'612.6
2018-Feb-12 00:31N 39°09' W 076°25'612.7
2018-Feb-12 00:01N 39°13' W 076°32'4 8.0
2018-Feb-11 23:31N 39°16' W 076°36'0 0.5
2018-Feb-11 22:58N 39°16' W 076°36'0 0.0
2018-Feb-11 22:28N 39°16' W 076°36'0 0.0
2018-Feb-11 21:58N 39°16' W 076°36'0 0.0
2018-Feb-11 21:28N 39°16' W 076°36'0 0.0
2018-Feb-11 20:58N 39°16' W 076°36'0 0.0
2018-Feb-11 20:28N 39°16' W 076°36'0 0.0
2018-Feb-11 19:58N 39°16' W 076°36'0 0.0
2018-Feb-11 19:22N 39°16' W 076°36'0 0.0
2018-Feb-11 18:58N 39°16' W 076°36'0 0.0
2018-Feb-11 18:28N 39°16' W 076°36'0 0.0
2018-Feb-11 17:55N 39°16' W 076°36'0 0.0
2018-Feb-11 17:28N 39°16' W 076°36'0 0.0
2018-Feb-11 16:58N 39°16' W 076°36'0 0.0
2018-Feb-11 16:28N 39°16' W 076°36'0 0.0
2018-Feb-11 15:58N 39°16' W 076°36'0 0.0
2018-Feb-11 15:25N 39°16' W 076°36'0 0.0
2018-Feb-11 14:55N 39°16' W 076°36'0 0.0
2018-Feb-11 14:28N 39°16' W 076°36'0 0.0
2018-Feb-11 14:00N 39°16' W 076°36'2 3.2
2018-Feb-11 13:30N 39°15' W 076°34'5 9.4
2018-Feb-11 13:00N 39°12' W 076°30'612.1
2018-Feb-11 12:30N 39°08' W 076°24'714.8
2018-Feb-11 12:00N 39°01' W 076°23'918.7
2018-Feb-11 11:30N 38°51' W 076°24'1220.9
2018-Feb-11 10:57N 38°40' W 076°25'3120.7
2018-Feb-11 09:27N 38°10' W 076°14'612.0
2018-Feb-11 08:59N 38°04' W 076°15'2 3.4
2018-Feb-11 08:26N 38°03' W 076°15'4 8.8
2018-Feb-11 07:59N 37°59' W 076°12'3818.4
2018-Feb-11 05:56N 37°22' W 076°05'919.6
2018-Feb-11 05:29N 37°14' W 076°08'917.2
2018-Feb-11 04:59N 37°05' W 076°06'918.0
2018-Feb-11 04:29N 36°58' W 075°60'5 9.7
2018-Feb-11 04:00N 36°55' W 075°55'510.5
2018-Feb-11 03:30N 36°52' W 075°50'510.6
2018-Feb-11 03:00N 36°49' W 075°45'  

Dump ship's entire track history